createdAt,value
2023-04-26T00:00:55.545Z,5.40
2023-04-26T00:03:23.600Z,5.60
2023-04-26T00:05:50.937Z,5.20
2023-04-26T00:08:18.084Z,5.60
2023-04-26T00:10:45.082Z,5.40
2023-04-26T00:13:12.088Z,5.70
2023-04-26T00:15:39.040Z,5.80
2023-04-26T00:18:06.186Z,5.60
2023-04-26T00:20:33.470Z,5.40
2023-04-26T00:23:00.385Z,5.60
2023-04-26T00:25:27.328Z,5.50
2023-04-26T00:27:54.329Z,5.00
2023-04-26T00:30:21.478Z,5.00
2023-04-26T00:32:48.421Z,5.80
2023-04-26T00:35:15.785Z,5.30
2023-04-26T00:37:43.283Z,5.30
2023-04-26T00:40:11.152Z,5.40
2023-04-26T00:42:39.509Z,5.30
2023-04-26T00:45:07.527Z,5.60
2023-04-26T00:47:34.685Z,5.50
2023-04-26T00:50:01.824Z,5.30
2023-04-26T00:52:28.830Z,5.00
2023-04-26T00:54:56.435Z,5.40
2023-04-26T00:57:23.414Z,5.40
2023-04-26T00:59:50.366Z,5.40
2023-04-26T01:02:17.791Z,5.00
2023-04-26T01:04:45.812Z,5.10
2023-04-26T01:07:12.761Z,5.60
2023-04-26T01:09:39.733Z,4.90
2023-04-26T01:12:07.449Z,5.40
2023-04-26T01:14:36.826Z,5.20
2023-04-26T01:17:03.958Z,5.10
2023-04-26T01:19:31.018Z,5.30
2023-04-26T01:21:58.334Z,5.50
2023-04-26T01:24:25.601Z,5.20
2023-04-26T01:26:52.520Z,6.00
2023-04-26T01:29:21.991Z,5.60
2023-04-26T01:31:49.071Z,5.20
2023-04-26T01:34:16.193Z,5.60
2023-04-26T01:36:46.164Z,5.40
2023-04-26T01:39:13.719Z,5.20
2023-04-26T01:41:40.767Z,4.80
2023-04-26T01:44:07.864Z,5.30
2023-04-26T01:46:34.964Z,4.50
2023-04-26T01:49:01.968Z,4.80
2023-04-26T01:51:29.886Z,4.90
2023-04-26T01:53:56.871Z,5.30
2023-04-26T01:56:25.266Z,4.60
2023-04-26T01:58:55.715Z,5.20
2023-04-26T02:01:23.631Z,5.40
2023-04-26T02:03:51.457Z,5.20
2023-04-26T02:06:20.381Z,5.30
2023-04-26T02:08:47.421Z,4.70
2023-04-26T02:11:14.374Z,4.20
2023-04-26T02:13:41.331Z,4.70
2023-04-26T02:16:08.400Z,5.30
2023-04-26T02:18:35.492Z,4.90
2023-04-26T02:21:02.487Z,5.00
2023-04-26T02:23:31.469Z,5.50
2023-04-26T02:25:58.464Z,5.30
2023-04-26T02:28:25.453Z,5.10
2023-04-26T02:30:56.882Z,4.90
2023-04-26T02:33:24.480Z,4.80
2023-04-26T02:35:51.681Z,5.80
2023-04-26T02:38:19.258Z,5.70
2023-04-26T02:40:46.325Z,5.20
2023-04-26T02:43:13.608Z,5.60
2023-04-26T02:45:43.802Z,5.10
2023-04-26T02:48:12.279Z,5.10
2023-04-26T02:50:39.342Z,5.40
2023-04-26T02:53:06.367Z,5.60
2023-04-26T02:55:33.764Z,6.00
2023-04-26T02:58:00.913Z,5.10
2023-04-26T03:00:28.725Z,5.40
2023-04-26T03:02:57.180Z,4.90
2023-04-26T03:05:24.769Z,4.80
2023-04-26T03:07:52.816Z,5.30
2023-04-26T03:10:19.881Z,5.90
2023-04-26T03:12:46.887Z,5.20
2023-04-26T03:15:15.442Z,4.80
2023-04-26T03:17:43.474Z,4.90
2023-04-26T03:20:11.856Z,6.00
2023-04-26T03:22:39.306Z,5.70
2023-04-26T03:25:07.946Z,5.40
2023-04-26T03:27:35.212Z,5.40
2023-04-26T03:30:02.232Z,5.20
2023-04-26T03:32:29.958Z,5.20
2023-04-26T03:34:57.064Z,5.10
2023-04-26T03:37:24.097Z,5.20
2023-04-26T03:39:56.778Z,5.60
2023-04-26T03:42:23.970Z,5.70
2023-04-26T03:44:51.071Z,5.70
2023-04-26T03:47:18.265Z,5.50
2023-04-26T03:49:45.356Z,5.60
2023-04-26T03:52:12.376Z,5.70
2023-04-26T03:54:39.430Z,5.70
2023-04-26T03:57:06.537Z,5.90
2023-04-26T03:59:33.531Z,6.20
2023-04-26T04:02:01.119Z,6.70
2023-04-26T04:04:28.252Z,6.10
2023-04-26T04:06:56.109Z,6.20
2023-04-26T04:09:23.111Z,5.90
2023-04-26T04:11:50.089Z,6.00
2023-04-26T04:14:17.040Z,6.20
2023-04-26T04:16:44.016Z,6.70
2023-04-26T04:19:11.748Z,7.00
2023-04-26T04:21:40.415Z,5.80
2023-04-26T04:24:08.149Z,5.90
2023-04-26T04:26:35.210Z,6.00
2023-04-26T04:29:09.035Z,5.80
2023-04-26T04:31:37.156Z,5.60
2023-04-26T04:34:04.519Z,6.20
2023-04-26T04:36:32.597Z,6.30
2023-04-26T04:38:59.706Z,5.60
2023-04-26T04:41:27.951Z,5.90
2023-04-26T04:43:55.226Z,5.70
2023-04-26T04:46:22.871Z,5.20
2023-04-26T04:48:50.191Z,5.30
2023-04-26T04:51:17.524Z,5.80
2023-04-26T04:53:44.554Z,5.90
2023-04-26T04:56:12.174Z,5.90
2023-04-26T04:58:41.663Z,5.50
2023-04-26T05:01:10.064Z,5.40
2023-04-26T05:03:50.275Z,5.30
2023-04-26T05:06:17.933Z,5.30
2023-04-26T05:08:45.292Z,5.20
2023-04-26T05:11:12.287Z,4.90
2023-04-26T05:13:39.261Z,5.30
2023-04-26T05:16:06.624Z,5.70
2023-04-26T05:18:33.639Z,5.10
2023-04-26T05:21:00.833Z,5.30
2023-04-26T05:23:27.924Z,5.00
2023-04-26T05:25:54.959Z,5.30
2023-04-26T05:28:40.714Z,5.20
2023-04-26T05:34:04.468Z,5.00
2023-04-26T05:36:36.747Z,5.20
2023-04-26T05:39:05.994Z,5.30
2023-04-26T05:41:32.903Z,5.40
2023-04-26T05:44:00.031Z,5.60
2023-04-26T05:46:27.110Z,5.10
2023-04-26T05:48:55.372Z,4.80
2023-04-26T05:51:22.576Z,4.70
2023-04-26T05:53:50.235Z,5.00
2023-04-26T05:56:17.604Z,5.50
2023-04-26T05:58:44.563Z,5.20
2023-04-26T06:01:12.594Z,5.20
2023-04-26T06:03:39.771Z,4.90
2023-04-26T06:06:08.133Z,5.20
2023-04-26T06:08:37.304Z,4.90
2023-04-26T06:11:04.269Z,5.20
2023-04-26T06:13:31.294Z,4.30
2023-04-26T06:15:59.616Z,4.50
2023-04-26T06:18:26.608Z,4.50
2023-04-26T06:20:53.558Z,5.10
2023-04-26T06:23:20.639Z,5.40
2023-04-26T06:25:47.758Z,5.20
2023-04-26T06:28:15.601Z,5.10
2023-04-26T06:30:42.939Z,4.90
2023-04-26T06:33:09.954Z,4.40
2023-04-26T06:35:42.734Z,4.30
2023-04-26T06:38:12.781Z,4.60
2023-04-26T06:40:40.712Z,4.60
2023-04-26T06:43:08.217Z,4.10
2023-04-26T06:45:44.446Z,4.10
2023-04-26T06:48:12.185Z,4.40
2023-04-26T06:50:40.243Z,4.50
2023-04-26T06:53:08.287Z,4.80
2023-04-26T06:55:35.489Z,4.10
2023-04-26T06:58:02.487Z,4.60
2023-04-26T07:00:30.410Z,4.90
2023-04-26T07:02:59.206Z,4.80
2023-04-26T07:05:26.372Z,5.20
2023-04-26T07:07:53.376Z,4.70
2023-04-26T07:10:21.307Z,4.40
2023-04-26T07:12:48.333Z,4.70
2023-04-26T07:15:15.774Z,4.80
2023-04-26T07:17:42.817Z,4.50
2023-04-26T07:20:10.580Z,4.90
2023-04-26T07:22:37.608Z,5.20
2023-04-26T07:25:05.517Z,4.90
2023-04-26T07:27:32.614Z,5.10
2023-04-26T07:30:00.765Z,5.30
2023-04-26T07:32:27.810Z,5.50
2023-04-26T07:34:54.854Z,4.90
2023-04-26T07:37:21.990Z,5.00
2023-04-26T07:39:49.077Z,5.00
2023-04-26T07:42:16.654Z,5.10
2023-04-26T07:44:44.528Z,5.40
2023-04-26T07:47:14.692Z,5.80
2023-04-26T07:49:42.703Z,4.80
2023-04-26T07:52:09.702Z,5.10
2023-04-26T07:54:37.218Z,5.40
2023-04-26T07:57:04.353Z,5.60
2023-04-26T07:59:31.573Z,5.30
2023-04-26T08:01:58.599Z,5.70
2023-04-26T08:04:34.304Z,5.30
2023-04-26T08:07:02.176Z,5.60
2023-04-26T08:09:30.922Z,5.80
2023-04-26T08:11:58.227Z,6.20
2023-04-26T08:14:25.504Z,5.70
2023-04-26T08:16:52.595Z,5.60
2023-04-26T08:19:19.616Z,5.70
2023-04-26T08:21:46.557Z,5.60
2023-04-26T08:24:13.679Z,4.70
2023-04-26T08:26:41.331Z,5.00
2023-04-26T08:29:08.274Z,4.60
2023-04-26T08:31:36.300Z,5.10
2023-04-26T08:34:03.381Z,5.30
2023-04-26T08:36:32.570Z,5.20
2023-04-26T08:39:00.005Z,5.00
2023-04-26T08:41:27.002Z,5.40
2023-04-26T08:43:56.171Z,5.20
2023-04-26T08:46:23.210Z,5.10
2023-04-26T08:49:01.038Z,4.70
2023-04-26T08:51:29.051Z,5.10
2023-04-26T08:53:56.252Z,4.90
2023-04-26T08:56:24.113Z,5.00
2023-04-26T08:58:52.137Z,4.60
2023-04-26T09:01:19.160Z,5.00
2023-04-26T09:03:47.158Z,4.90
2023-04-26T09:06:15.351Z,4.80
2023-04-26T09:08:42.435Z,4.60
2023-04-26T09:11:09.401Z,4.80
2023-04-26T09:13:37.313Z,5.20
2023-04-26T09:16:05.247Z,4.80
2023-04-26T09:18:34.097Z,5.00
2023-04-26T09:21:03.005Z,5.10
2023-04-26T09:23:30.020Z,5.90
2023-04-26T09:25:56.939Z,5.00
2023-04-26T09:28:27.358Z,5.20
2023-04-26T09:30:54.351Z,4.70
2023-04-26T09:33:21.493Z,4.80
2023-04-26T09:35:48.547Z,4.40
2023-04-26T09:38:17.490Z,4.40
2023-04-26T09:40:46.259Z,4.30
2023-04-26T09:43:14.146Z,4.80
2023-04-26T09:45:58.150Z,4.70
2023-04-26T09:48:30.383Z,5.30
2023-04-26T09:50:57.741Z,5.20
2023-04-26T09:53:28.530Z,5.50
2023-04-26T09:55:56.262Z,5.80
2023-04-26T09:58:23.529Z,4.60
2023-04-26T10:00:51.437Z,5.30
2023-04-26T10:03:20.267Z,4.70
2023-04-26T10:05:48.036Z,5.20
2023-04-26T10:08:15.269Z,4.70
2023-04-26T10:10:42.834Z,4.70
2023-04-26T10:13:09.774Z,4.50
2023-04-26T10:15:38.331Z,5.00
2023-04-26T10:18:05.665Z,4.90
2023-04-26T10:20:32.629Z,5.10
2023-04-26T10:23:03.030Z,4.90
2023-04-26T10:25:40.576Z,5.40
2023-04-26T10:28:07.853Z,4.80
2023-04-26T10:30:53.837Z,4.60
2023-04-26T10:33:21.610Z,5.40
2023-04-26T10:36:04.088Z,5.10
2023-04-26T10:38:31.415Z,5.60
2023-04-26T10:41:31.147Z,5.10
2023-04-26T10:44:00.078Z,5.20
2023-04-26T10:46:36.003Z,6.20
2023-04-26T10:49:20.035Z,5.10
2023-04-26T10:52:12.709Z,5.00
2023-04-26T10:54:47.465Z,5.30
2023-04-26T10:57:14.739Z,5.30
2023-04-26T11:00:10.998Z,5.40
2023-04-26T11:02:57.551Z,5.70
2023-04-26T11:05:34.449Z,6.10
2023-04-26T11:08:21.362Z,5.00
2023-04-26T11:10:52.253Z,6.50
2023-04-26T11:13:20.685Z,6.20
2023-04-26T11:15:53.407Z,5.70
2023-04-26T11:18:23.961Z,5.50
2023-04-26T11:20:50.921Z,5.90
2023-04-26T11:23:19.433Z,6.00
2023-04-26T11:25:46.482Z,6.10
2023-04-26T11:28:13.494Z,6.60
2023-04-26T11:30:40.504Z,6.50
2023-04-26T11:33:07.860Z,6.20
2023-04-26T11:35:39.115Z,7.40
2023-04-26T11:38:06.322Z,6.80
2023-04-26T11:40:33.465Z,6.60
2023-04-26T11:43:02.208Z,6.40
2023-04-26T11:45:29.381Z,6.70
2023-04-26T11:47:56.394Z,6.00
2023-04-26T11:50:26.940Z,5.70
2023-04-26T11:52:55.912Z,5.40
2023-04-26T11:55:30.865Z,6.00
2023-04-26T11:57:58.588Z,8.30
2023-04-26T12:00:25.896Z,9.10
2023-04-26T12:02:53.552Z,8.50
2023-04-26T12:05:33.498Z,7.20
2023-04-26T12:08:00.953Z,6.90
2023-04-26T12:10:34.046Z,6.30
2023-04-26T12:13:01.174Z,6.50
2023-04-26T12:15:35.052Z,8.20
2023-04-26T12:18:10.505Z,7.70
2023-04-26T12:20:39.034Z,7.50
2023-04-26T12:23:32.930Z,7.60
2023-04-26T12:26:03.959Z,8.30
2023-04-26T12:28:31.177Z,7.60
2023-04-26T12:30:58.160Z,7.10
2023-04-26T12:33:25.600Z,6.60
2023-04-26T12:35:52.808Z,6.30
2023-04-26T12:38:19.984Z,6.50
2023-04-26T12:40:47.155Z,6.20
2023-04-26T12:43:15.947Z,6.00
2023-04-26T12:45:42.933Z,6.40
2023-04-26T12:48:10.020Z,6.80
2023-04-26T12:50:37.385Z,6.30
2023-04-26T12:53:04.446Z,6.30
2023-04-26T12:55:32.948Z,6.70
2023-04-26T12:58:00.237Z,6.00
2023-04-26T13:00:27.279Z,6.00
2023-04-26T13:02:54.473Z,6.30
2023-04-26T13:05:24.768Z,6.80
2023-04-26T13:07:51.974Z,7.30
2023-04-26T13:10:19.051Z,6.90
2023-04-26T13:12:46.356Z,6.50
2023-04-26T13:17:43.064Z,8.60
2023-04-26T13:20:11.527Z,7.50
2023-04-26T13:22:42.045Z,6.20
2023-04-26T13:25:10.290Z,5.40
2023-04-26T13:27:37.296Z,5.60
2023-04-26T13:30:04.716Z,4.90
2023-04-26T13:32:32.209Z,5.00
2023-04-26T13:34:59.453Z,4.80
2023-04-26T13:37:27.127Z,4.70
2023-04-26T13:39:54.480Z,5.20
2023-04-26T13:42:21.501Z,5.10
2023-04-26T13:44:48.434Z,5.50
2023-04-26T13:47:17.706Z,4.90
2023-04-26T13:49:44.993Z,5.10
2023-04-26T13:52:12.183Z,5.00
2023-04-26T13:54:42.073Z,5.80
2023-04-26T13:57:09.064Z,5.30
2023-04-26T13:59:36.168Z,5.10
2023-04-26T14:02:03.881Z,5.70
2023-04-26T14:04:31.146Z,5.70
2023-04-26T14:06:58.775Z,5.20
2023-04-26T14:09:25.810Z,4.90
2023-04-26T14:12:00.821Z,5.00
2023-04-26T14:14:34.854Z,4.80
2023-04-26T14:17:03.906Z,5.10
2023-04-26T14:19:31.418Z,5.90
2023-04-26T14:21:58.431Z,6.20
2023-04-26T14:24:25.570Z,6.30
2023-04-26T14:26:52.533Z,5.80
2023-04-26T14:29:19.472Z,6.30
2023-04-26T14:31:46.637Z,6.40
2023-04-26T14:34:13.667Z,5.80
2023-04-26T14:36:40.736Z,5.60
2023-04-26T14:39:07.894Z,5.40
2023-04-26T14:41:34.952Z,5.50
2023-04-26T14:44:02.011Z,5.90
2023-04-26T14:46:29.119Z,5.10
2023-04-26T14:48:57.034Z,5.30
2023-04-26T14:51:24.195Z,5.20
2023-04-26T14:53:51.170Z,5.20
2023-04-26T14:56:18.331Z,6.30
2023-04-26T14:58:45.274Z,5.80
2023-04-26T15:01:12.349Z,5.40
2023-04-26T15:03:39.640Z,4.60
2023-04-26T15:06:12.312Z,5.10
2023-04-26T15:08:39.307Z,5.00
2023-04-26T15:11:06.614Z,5.40
2023-04-26T15:13:33.560Z,5.00
2023-04-26T15:16:08.061Z,5.10
2023-04-26T15:18:36.338Z,5.80
2023-04-26T15:21:03.424Z,6.70
2023-04-26T15:23:30.722Z,12.30
2023-04-26T15:26:02.235Z,14.40
2023-04-26T15:28:29.404Z,16.10
2023-04-26T15:31:08.911Z,16.10
2023-04-26T15:33:36.546Z,15.60
2023-04-26T15:36:03.772Z,10.60
2023-04-26T15:38:30.833Z,8.20
2023-04-26T15:40:59.641Z,10.80
2023-04-26T15:43:27.273Z,12.10
2023-04-26T15:45:54.438Z,10.00
2023-04-26T15:48:22.128Z,8.00
2023-04-26T15:50:50.697Z,6.50
2023-04-26T15:53:17.905Z,5.80
2023-04-26T15:55:45.230Z,6.90
2023-04-26T15:58:12.178Z,7.40
2023-04-26T16:00:39.918Z,6.60
2023-04-26T16:03:07.401Z,6.50
2023-04-26T16:05:34.677Z,6.50
2023-04-26T16:08:01.837Z,6.10
2023-04-26T16:10:29.372Z,7.40
2023-04-26T16:12:56.641Z,7.70
2023-04-26T16:15:23.683Z,6.60
2023-04-26T16:17:51.474Z,6.40
2023-04-26T16:20:20.357Z,6.80
2023-04-26T16:22:47.422Z,6.60
2023-04-26T16:25:16.423Z,7.90
2023-04-26T16:27:46.404Z,7.50
2023-04-26T16:30:13.804Z,6.20
2023-04-26T16:32:40.913Z,6.60
2023-04-26T16:35:08.977Z,6.40
2023-04-26T16:37:35.949Z,7.60
2023-04-26T16:40:05.199Z,8.90
2023-04-26T16:42:32.251Z,8.60
2023-04-26T16:44:59.280Z,7.70
2023-04-26T16:47:26.962Z,7.20
2023-04-26T16:49:53.970Z,7.20
2023-04-26T16:52:21.065Z,7.50
2023-04-26T16:54:48.037Z,6.90
2023-04-26T16:57:14.965Z,6.60
2023-04-26T16:59:42.260Z,6.40
2023-04-26T17:02:09.530Z,6.50
2023-04-26T17:04:36.692Z,7.70
2023-04-26T17:07:04.214Z,11.40
2023-04-26T17:09:31.478Z,8.70
2023-04-26T17:11:58.556Z,7.30
2023-04-26T17:14:25.678Z,6.30
2023-04-26T17:16:56.077Z,10.30
2023-04-26T17:19:23.274Z,11.10
2023-04-26T17:21:50.306Z,11.20
2023-04-26T17:24:20.875Z,17.00
2023-04-26T17:26:48.135Z,14.90
2023-04-26T17:29:15.177Z,23.00
2023-04-26T17:31:42.231Z,30.70
2023-04-26T17:34:09.586Z,18.00
2023-04-26T17:36:36.837Z,10.80
2023-04-26T17:39:03.847Z,8.50
2023-04-26T17:41:30.951Z,7.70
2023-04-26T17:43:58.013Z,6.90
2023-04-26T17:46:24.990Z,6.10
2023-04-26T17:48:52.060Z,6.50
2023-04-26T17:51:19.114Z,6.60
2023-04-26T17:53:46.579Z,6.70
2023-04-26T17:56:13.637Z,7.40
2023-04-26T17:58:40.742Z,6.90
2023-04-26T18:01:07.980Z,6.50
2023-04-26T18:03:36.072Z,6.90
2023-04-26T18:06:03.706Z,7.00
2023-04-26T18:08:30.786Z,7.10
2023-04-26T18:10:58.261Z,7.30
2023-04-26T18:13:25.251Z,7.00
2023-04-26T18:15:54.289Z,6.40
2023-04-26T18:18:21.356Z,7.80
2023-04-26T18:20:48.394Z,7.50
2023-04-26T18:23:16.543Z,7.30
2023-04-26T18:25:43.613Z,6.90
2023-04-26T18:28:10.729Z,7.80
2023-04-26T18:30:37.659Z,7.10
2023-04-26T18:33:05.227Z,8.00
2023-04-26T18:35:32.330Z,7.40
2023-04-26T18:37:59.275Z,7.30
2023-04-26T18:40:26.232Z,7.00
2023-04-26T18:42:53.371Z,6.90
2023-04-26T18:45:20.294Z,7.20
2023-04-26T18:47:47.616Z,7.70
2023-04-26T18:50:14.617Z,7.40
2023-04-26T18:52:41.625Z,7.10
2023-04-26T18:55:09.378Z,6.60
2023-04-26T18:57:36.423Z,7.00
2023-04-26T19:00:06.659Z,7.00
2023-04-26T19:02:36.506Z,7.20
2023-04-26T19:05:05.271Z,6.90
2023-04-26T19:07:32.505Z,7.30
2023-04-26T19:10:01.331Z,7.40
2023-04-26T19:12:54.352Z,7.70
2023-04-26T19:15:21.628Z,7.50
2023-04-26T19:17:50.373Z,7.30
2023-04-26T19:20:17.695Z,7.70
2023-04-26T19:22:46.339Z,7.60
2023-04-26T19:25:14.080Z,7.70
2023-04-26T19:27:41.248Z,7.60
2023-04-26T19:30:09.818Z,7.30
2023-04-26T19:32:37.329Z,7.90
2023-04-26T19:35:06.211Z,8.00
2023-04-26T19:37:33.218Z,7.20
2023-04-26T19:40:00.513Z,6.60
2023-04-26T19:42:27.926Z,7.10
2023-04-26T19:44:55.078Z,6.50
2023-04-26T19:47:22.035Z,7.20
2023-04-26T19:49:51.768Z,7.10
2023-04-26T19:52:20.005Z,7.30
2023-04-26T19:54:46.946Z,6.70
2023-04-26T19:57:13.958Z,7.00
2023-04-26T19:59:41.002Z,7.40
2023-04-26T20:02:08.129Z,7.20
2023-04-26T20:04:36.355Z,7.80
2023-04-26T20:07:05.199Z,7.50
2023-04-26T20:09:32.590Z,7.70
2023-04-26T20:12:00.316Z,8.70
2023-04-26T20:14:30.544Z,8.00
2023-04-26T20:17:02.273Z,8.70
2023-04-26T20:19:29.686Z,10.10
2023-04-26T20:21:57.075Z,10.10
2023-04-26T20:27:16.862Z,12.30
2023-04-26T20:29:46.999Z,13.00
2023-04-26T20:32:14.168Z,12.40
2023-04-26T20:34:41.599Z,12.70
2023-04-26T20:37:08.540Z,14.90
2023-04-26T20:39:35.509Z,15.20
2023-04-26T20:42:02.500Z,14.00
2023-04-26T20:44:30.057Z,11.90
2023-04-26T20:46:57.540Z,11.90
2023-04-26T20:49:24.511Z,11.10
2023-04-26T20:51:51.747Z,10.90
2023-04-26T20:54:18.680Z,12.10
2023-04-26T20:56:45.709Z,11.90
2023-04-26T20:59:12.760Z,11.60
2023-04-26T21:01:39.818Z,11.80
2023-04-26T21:04:06.886Z,12.00
2023-04-26T21:06:33.887Z,12.70
2023-04-26T21:09:00.826Z,17.10
2023-04-26T21:11:27.960Z,13.60
2023-04-26T21:13:54.975Z,12.80
2023-04-26T21:16:22.053Z,11.60
2023-04-26T21:18:49.227Z,12.80
2023-04-26T21:21:16.181Z,12.60
2023-04-26T21:23:46.330Z,13.60
2023-04-26T21:26:13.614Z,12.30
2023-04-26T21:28:40.733Z,11.80
2023-04-26T21:31:07.906Z,12.60
2023-04-26T21:33:34.991Z,12.60
2023-04-26T21:36:01.990Z,11.90
2023-04-26T21:38:28.982Z,11.80
2023-04-26T21:40:56.087Z,11.30
2023-04-26T21:43:23.065Z,13.90
2023-04-26T21:45:52.405Z,14.30
2023-04-26T21:48:19.422Z,14.50
2023-04-26T21:50:49.020Z,14.70
2023-04-26T21:53:16.761Z,15.10
2023-04-26T21:55:44.043Z,14.20
2023-04-26T21:58:11.080Z,12.90
2023-04-26T22:00:38.132Z,12.90
2023-04-26T22:03:05.427Z,12.30
2023-04-26T22:05:32.472Z,11.50
2023-04-26T22:07:59.477Z,12.00
2023-04-26T22:10:26.960Z,11.70
2023-04-26T22:12:53.877Z,12.50
2023-04-26T22:15:21.248Z,12.80
2023-04-26T22:17:48.250Z,11.90
2023-04-26T22:20:15.233Z,12.00
2023-04-26T22:22:42.321Z,10.50
2023-04-26T22:25:09.923Z,7.70
2023-04-26T22:27:36.933Z,5.40
2023-04-26T22:30:20.359Z,4.50
2023-04-26T22:32:54.683Z,3.50
2023-04-26T22:35:25.284Z,3.50
2023-04-26T22:37:52.499Z,2.70
2023-04-26T22:40:19.618Z,2.80
2023-04-26T22:42:46.650Z,2.40
2023-04-26T22:45:14.014Z,2.20
2023-04-26T22:47:41.051Z,1.90
2023-04-26T22:50:08.361Z,1.60
2023-04-26T22:52:35.529Z,2.30
2023-04-26T22:55:02.644Z,2.20
2023-04-26T22:57:30.529Z,2.00
2023-04-26T22:59:57.451Z,1.70
2023-04-26T23:02:24.497Z,1.70
2023-04-26T23:04:51.530Z,1.50
2023-04-26T23:07:18.666Z,1.50
2023-04-26T23:09:45.787Z,1.60
2023-04-26T23:12:17.237Z,1.40
2023-04-26T23:14:44.212Z,1.60
2023-04-26T23:17:12.241Z,1.50
2023-04-26T23:19:39.468Z,1.50
2023-04-26T23:22:06.597Z,1.50
2023-04-26T23:24:33.529Z,1.70
2023-04-26T23:27:01.436Z,1.90
2023-04-26T23:29:28.407Z,1.60
2023-04-26T23:31:55.655Z,1.70
2023-04-26T23:34:22.679Z,1.40
2023-04-26T23:36:49.667Z,1.60
2023-04-26T23:39:17.086Z,1.50
2023-04-26T23:41:44.109Z,1.80
2023-04-26T23:44:11.357Z,1.50
2023-04-26T23:46:38.313Z,1.50
2023-04-26T23:49:05.287Z,1.50
2023-04-26T23:51:32.939Z,1.60
2023-04-26T23:53:59.923Z,1.30
2023-04-26T23:56:26.897Z,1.60
2023-04-26T23:58:54.628Z,1.60
